Time;durP1;ratioP1;P1;durP2;ratioP2;P2;SDS_P1;SDS_P2;PMS_P1;PMS_P2;Temp;Humidity;BMP_temperature;BMP_pressure;BME280_temperature;BME280_humidity;BME280_pressure;Samples;Min_cycle;Max_cycle;Signal;HPM_P1;HPM_P2
2023/11/10 06:46:23;;;;;;;1.90;0.90;;;;;;;;;;10515557;28;20843;-84
2023/11/10 06:51:24;;;;;;;2.80;0.88;;;;;;;;;;10513223;28;20024;-84
2023/11/10 06:56:25;;;;;;;4.43;1.33;;;;;;;;;;10514333;28;20092;-80
2023/11/10 07:01:28;;;;;;;1.90;1.05;;;;;;;;;;10511736;28;20028;-81
2023/11/10 07:06:31;;;;;;;2.33;1.00;;;;;;;;;;10512303;28;20040;-81
2023/11/10 07:11:33;;;;;;;4.95;1.40;;;;;;;;;;10511143;28;20107;-81
2023/11/10 07:16:36;;;;;;;3.78;1.80;;;;;;;;;;10509571;28;20439;-81
2023/11/10 07:21:38;;;;;;;3.10;1.50;;;;;;;;;;10512961;28;20029;-80
2023/11/10 07:26:39;;;;;;;2.42;0.93;;;;;;;;;;10523841;28;20096;-80
2023/11/10 07:31:40;;;;;;;4.28;1.20;;;;;;;;;;10524447;28;20032;-80
2023/11/10 07:36:41;;;;;;;2.88;1.00;;;;;;;;;;10524315;28;20035;-80
2023/11/10 07:41:43;;;;;;;2.28;0.95;;;;;;;;;;10525176;28;20033;-80
2023/11/10 07:46:45;;;;;;;1.98;0.98;;;;;;;;;;10523978;28;20029;-80
2023/11/10 07:51:46;;;;;;;2.83;1.20;;;;;;;;;;10516929;28;20086;-80
2023/11/10 07:56:47;;;;;;;2.42;0.95;;;;;;;;;;10482969;28;20459;-80
2023/11/10 08:01:48;;;;;;;2.97;1.17;;;;;;;;;;10472341;28;20057;-81
2023/11/10 08:06:49;;;;;;;;;;;;;;;;;;10471923;28;20024;-79
2023/11/10 08:11:51;;;;;;;2.08;0.85;;;;;;;;;;10464012;28;19915;-79
2023/11/10 08:16:52;;;;;;;2.70;1.05;;;;;;;;;;10467360;28;20025;-79
2023/11/10 08:21:53;;;;;;;;;;;;;;;;;;10463158;28;20025;-78
2023/11/10 08:26:55;;;;;;;2.70;1.20;;;;;;;;;;10464324;28;19904;-77
2023/11/10 08:31:56;;;;;;;2.72;0.90;;;;;;;;;;10466742;28;20032;-78
2023/11/10 08:36:58;;;;;;;;;;;;;;;;;;10465014;28;20017;-78
2023/11/10 08:41:59;;;;;;;2.58;1.30;;;;;;;;;;10465642;28;19917;-78
2023/11/10 08:47:00;;;;;;;;;;;;;;;;;;10466965;28;20070;-78
2023/11/10 08:52:01;;;;;;;3.00;1.20;;;;;;;;;;10464902;28;20305;-79
2023/11/10 08:57:02;;;;;;;;;;;;;;;;;;10468300;28;20045;-80
2023/11/10 09:02:03;;;;;;;4.00;1.05;;;;;;;;;;10465744;28;19905;-79
2023/11/10 09:07:04;;;;;;;2.28;1.30;;;;;;;;;;10463228;28;20021;-79
2023/11/10 09:12:06;;;;;;;2.58;1.20;;;;;;;;;;10463487;28;20366;-79
2023/11/10 09:17:07;;;;;;;3.05;0.95;;;;;;;;;;10463695;28;20039;-80
2023/11/10 09:22:08;;;;;;;3.13;0.80;;;;;;;;;;10471814;28;20093;-79
2023/11/10 09:27:09;;;;;;;4.60;1.25;;;;;;;;;;10473132;28;20052;-80
2023/11/10 09:32:10;;;;;;;2.47;0.88;;;;;;;;;;10463593;28;20075;-84
2023/11/10 09:37:11;;;;;;;3.83;0.80;;;;;;;;;;10464972;28;20045;-81
2023/11/10 09:42:12;;;;;;;;;;;;;;;;;;10466465;28;20036;-82
2023/11/10 09:47:13;;;;;;;3.40;1.25;;;;;;;;;;10477018;28;20353;-81
2023/11/10 09:52:16;;;;;;;3.03;1.08;;;;;;;;;;10463460;28;20060;-81
2023/11/10 09:57:17;;;;;;;3.15;1.40;;;;;;;;;;10463183;28;20017;-81
2023/11/10 10:02:18;;;;;;;2.67;1.15;;;;;;;;;;10464030;28;20029;-81
2023/11/10 10:07:19;;;;;;;7.95;1.67;;;;;;;;;;10462650;28;20094;-81
2023/11/10 10:12:22;;;;;;;3.45;1.17;;;;;;;;;;10463407;28;20081;-81
2023/11/10 10:17:36;;;;;;;3.60;0.93;;;;;;;;;;10463035;28;20047;-82
2023/11/10 10:22:48;;;;;;;4.63;1.40;;;;;;;;;;10462955;28;20036;-80
2023/11/10 10:27:50;;;;;;;3.95;1.10;;;;;;;;;;10463680;28;20028;-81
2023/11/10 10:32:51;;;;;;;3.72;1.30;;;;;;;;;;10462847;28;20468;-81
2023/11/10 10:37:53;;;;;;;;;;;;;;;;;;10470627;28;20017;-80
2023/11/10 10:42:54;;;;;;;6.97;1.60;;;;;;;;;;10476819;28;20361;-82
2023/11/10 10:47:58;;;;;;;2.55;1.05;;;;;;;;;;10471002;28;20096;-81
2023/11/10 10:53:00;;;;;;;5.40;1.13;;;;;;;;;;10470205;28;20036;-84
2023/11/10 10:58:01;;;;;;;2.78;0.90;;;;;;;;;;10474539;28;20032;-81
2023/11/10 11:03:08;;;;;;;3.47;0.90;;;;;;;;;;10470010;28;20029;-81
2023/11/10 11:08:23;;;;;;;3.38;1.20;;;;;;;;;;10468643;28;20086;-81
2023/11/10 11:13:30;;;;;;;3.30;1.13;;;;;;;;;;10474783;28;20075;-82
2023/11/10 11:18:45;;;;;;;5.03;1.30;;;;;;;;;;10479898;28;20034;-81
2023/11/10 11:24:07;;;;;;;3.35;1.00;;;;;;;;;;10491282;28;20033;-86
2023/11/10 11:29:09;;;;;;;3.50;0.80;;;;;;;;;;10469656;28;20036;-81
2023/11/10 11:34:14;;;;;;;5.95;3.28;;;;;;;;;;10475819;28;20094;-83
2023/11/10 11:39:17;;;;;;;4.68;1.52;;;;;;;;;;10473502;28;20397;-81
2023/11/10 11:44:26;;;;;;;4.40;1.30;;;;;;;;;;10472356;28;20037;-81
2023/11/10 11:49:28;;;;;;;4.75;1.50;;;;;;;;;;10476865;28;20076;-81
2023/11/10 11:54:29;;;;;;;5.70;1.30;;;;;;;;;;10472862;28;20040;-79
2023/11/10 11:59:30;;;;;;;4.15;1.60;;;;;;;;;;10480838;28;20424;-81
2023/11/10 12:04:31;;;;;;;4.35;1.55;;;;;;;;;;10471816;28;20032;-81
2023/11/10 12:09:32;;;;;;;3.72;1.20;;;;;;;;;;10471171;28;20082;-81
2023/11/10 12:14:33;;;;;;;6.78;1.00;;;;;;;;;;10471780;28;20523;-81
2023/11/10 12:19:35;;;;;;;3.95;1.10;;;;;;;;;;10474266;28;20025;-82
2023/11/10 12:24:36;;;;;;;5.07;1.30;;;;;;;;;;10472554;28;20036;-82
2023/11/10 12:29:44;;;;;;;5.85;1.55;;;;;;;;;;10471409;28;20060;-83
2023/11/10 12:34:48;;;;;;;2.97;0.90;;;;;;;;;;10471976;28;20033;-81
2023/11/10 12:39:50;;;;;;;4.80;1.10;;;;;;;;;;10471734;28;20036;-82
2023/11/10 12:44:56;;;;;;;2.78;1.00;;;;;;;;;;10470711;28;20036;-82
2023/11/10 12:49:59;;;;;;;3.60;0.98;;;;;;;;;;10470367;28;20036;-83
2023/11/10 12:55:01;;;;;;;5.72;1.38;;;;;;;;;;10483128;22;20034;-82
2023/11/10 13:00:11;;;;;;;5.05;1.17;;;;;;;;;;10390919;28;20030;-82
2023/11/10 13:05:14;;;;;;;3.38;0.82;;;;;;;;;;10389921;28;20086;-82
2023/11/10 13:10:15;;;;;;;2.90;1.02;;;;;;;;;;10388994;28;20060;-82
2023/11/10 13:15:16;;;;;;;;;;;;;;;;;;10394389;28;20067;-82
2023/11/10 13:20:21;;;;;;;3.67;1.10;;;;;;;;;;10400855;28;20416;-82
2023/11/10 13:25:22;;;;;;;3.40;1.40;;;;;;;;;;10391390;28;20057;-81
2023/11/10 13:30:23;;;;;;;4.82;1.10;;;;;;;;;;10394789;28;20072;-81
2023/11/10 13:35:24;;;;;;;;;;;;;;;;;;10389701;28;20124;-81
2023/11/10 13:40:25;;;;;;;2.60;0.88;;;;;;;;;;10395633;28;19905;-82
2023/11/10 13:45:26;;;;;;;;;;;;;;;;;;10413429;28;20025;-82
2023/11/10 13:50:27;;;;;;;2.30;1.10;;;;;;;;;;10386556;28;19913;-80
2023/11/10 13:55:28;;;;;;;;;;;;;;;;;;10386744;28;20065;-82
2023/11/10 14:00:30;;;;;;;2.78;1.23;;;;;;;;;;10386931;28;19916;-81
2023/11/10 14:05:32;;;;;;;2.97;1.33;;;;;;;;;;10386553;28;20038;-81
2023/11/10 14:10:33;;;;;;;2.90;1.20;;;;;;;;;;10384628;28;20091;-82
2023/11/10 14:15:34;;;;;;;2.63;0.82;;;;;;;;;;10386886;28;20101;-82
2023/11/10 14:20:35;;;;;;;1.92;0.75;;;;;;;;;;10386844;28;20124;-83
2023/11/10 14:25:36;;;;;;;;;;;;;;;;;;10387261;28;20076;-83
2023/11/10 14:30:37;;;;;;;2.08;1.05;;;;;;;;;;10392877;28;20230;-83
2023/11/10 14:35:38;;;;;;;3.53;1.25;;;;;;;;;;10398115;28;20041;-82
2023/11/10 14:40:41;;;;;;;;;;;;;;;;;;10393213;28;20320;-83
2023/11/10 14:45:47;;;;;;;2.80;1.23;;;;;;;;;;10389377;28;19961;-85
2023/11/10 14:50:49;;;;;;;2.95;1.10;;;;;;;;;;10413450;28;20028;-82
2023/11/10 14:55:50;;;;;;;2.75;1.00;;;;;;;;;;10410334;28;20045;-83
2023/11/10 15:00:53;;;;;;;;;;;;;;;;;;10388817;28;20104;-82
2023/11/10 15:05:54;;;;;;;1.77;1.02;;;;;;;;;;10400764;28;20334;-83
2023/11/10 15:10:56;;;;;;;3.40;1.60;;;;;;;;;;10405032;28;20033;-84
2023/11/10 15:15:58;;;;;;;3.15;0.90;;;;;;;;;;10406395;28;20030;-82
2023/11/10 15:20:59;;;;;;;2.75;0.88;;;;;;;;;;10406678;28;20030;-82
2023/11/10 15:26:00;;;;;;;2.60;1.08;;;;;;;;;;10397536;28;20478;-84
2023/11/10 15:31:03;;;;;;;;;;;;;;;;;;10397143;28;20077;-83
2023/11/10 15:36:04;;;;;;;2.05;0.80;;;;;;;;;;10398061;28;19910;-84
2023/11/10 15:41:05;;;;;;;1.73;0.90;;;;;;;;;;10402779;28;20442;-82
2023/11/10 15:46:07;;;;;;;2.15;1.00;;;;;;;;;;10404436;28;20097;-83
2023/11/10 15:51:09;;;;;;;3.45;1.40;;;;;;;;;;10412655;28;20021;-82
2023/11/10 15:56:11;;;;;;;2.70;1.17;;;;;;;;;;10394365;28;20129;-83
2023/11/10 16:01:13;;;;;;;2.80;1.10;;;;;;;;;;10394746;28;20060;-82
2023/11/10 16:06:15;;;;;;;3.10;1.00;;;;;;;;;;10393953;28;20124;-84
2023/11/10 16:11:16;;;;;;;2.70;1.90;;;;;;;;;;10394051;28;20077;-84
2023/11/10 16:16:18;;;;;;;3.28;1.30;;;;;;;;;;10393374;28;20555;-83
2023/11/10 16:21:20;;;;;;;2.47;1.13;;;;;;;;;;10400428;28;20029;-83
2023/11/10 16:26:21;;;;;;;3.10;1.40;;;;;;;;;;10393496;28;20068;-83
2023/11/10 16:31:22;;;;;;;;;;;;;;;;;;10394365;28;20093;-83
2023/11/10 16:36:23;;;;;;;2.75;1.73;;;;;;;;;;10393593;28;19924;-83
2023/11/10 16:41:24;;;;;;;;;;;;;;;;;;10394845;28;20053;-83
2023/11/10 16:46:27;;;;;;;2.35;1.42;;;;;;;;;;10383747;28;19909;-83
2023/11/10 16:51:28;;;;;;;4.28;1.60;;;;;;;;;;10392916;28;20022;-84
2023/11/10 16:56:29;;;;;;;6.60;3.90;;;;;;;;;;10414457;28;20024;-83
2023/11/10 17:01:33;;;;;;;2.70;1.45;;;;;;;;;;10394684;28;20033;-83
2023/11/10 17:06:34;;;;;;;3.35;1.40;;;;;;;;;;10390756;28;20137;-84
2023/11/10 17:11:35;;;;;;;;;;;;;;;;;;10390828;28;20050;-84
2023/11/10 17:16:36;;;;;;;3.40;1.63;;;;;;;;;;10390419;28;19909;-84
2023/11/10 17:21:37;;;;;;;3.55;1.10;;;;;;;;;;10391242;28;20034;-85
2023/11/10 17:26:38;;;;;;;2.72;1.00;;;;;;;;;;10390609;28;20398;-86
2023/11/10 17:31:39;;;;;;;;;;;;;;;;;;10389111;28;20113;-84
2023/11/10 17:36:43;;;;;;;3.47;1.77;;;;;;;;;;10388057;28;19906;-87
2023/11/10 17:41:49;;;;;;;3.40;1.40;;;;;;;;;;10382871;28;20040;-88
2023/11/10 17:46:56;;;;;;;3.45;1.40;;;;;;;;;;10382542;28;20049;-87
2023/11/10 17:51:58;;;;;;;3.45;1.98;;;;;;;;;;10380171;28;20032;-88
2023/11/10 17:57:22;;;;;;;3.33;2.00;;;;;;;;;;10362754;28;20087;-87
2023/11/10 18:02:24;;;;;;;6.28;3.75;;;;;;;;;;10379414;28;20029;-87
2023/11/10 18:07:27;;;;;;;4.32;1.80;;;;;;;;;;10380344;28;20026;-87
2023/11/10 18:12:28;;;;;;;3.97;1.83;;;;;;;;;;10379729;28;20021;-87
2023/11/10 18:17:30;;;;;;;4.03;2.05;;;;;;;;;;10378384;28;20074;-88
2023/11/10 18:22:31;;;;;;;5.47;2.30;;;;;;;;;;10377082;28;20482;-88
2023/11/10 18:27:32;;;;;;;;;;;;;;;;;;10379567;28;20080;-87
2023/11/10 18:32:33;;;;;;;;;;;;;;;;;;10377143;28;19955;-87
2023/11/10 18:37:34;;;;;;;3.38;1.80;;;;;;;;;;10376035;28;19955;-87
2023/11/10 18:42:35;;;;;;;3.67;1.70;;;;;;;;;;10379074;28;20029;-87
2023/11/10 18:47:37;;;;;;;;;;;;;;;;;;10389178;28;20029;-87
2023/11/10 18:52:38;;;;;;;4.93;1.90;;;;;;;;;;10380432;28;19906;-88
2023/11/10 18:57:41;;;;;;;5.40;1.95;;;;;;;;;;10444794;22;20500;-87
2023/11/10 19:02:47;;;;;;;2.63;1.40;;;;;;;;;;10419212;28;20481;-87
2023/11/10 19:07:51;;;;;;;2.28;1.20;;;;;;;;;;10417553;28;20035;-87
2023/11/10 19:12:54;;;;;;;3.47;1.30;;;;;;;;;;10418591;28;20032;-87
2023/11/10 19:17:55;;;;;;;6.60;3.90;;;;;;;;;;10401958;28;20049;-87
2023/11/10 19:22:56;;;;;;;4.53;2.10;;;;;;;;;;10416864;28;20036;-87
2023/11/10 19:28:23;;;;;;;5.28;3.13;;;;;;;;;;10419016;28;20465;-87
2023/11/10 19:33:36;;;;;;;5.15;2.95;;;;;;;;;;10427919;28;20030;-88
2023/11/10 19:38:39;;;;;;;4.72;2.67;;;;;;;;;;10451488;28;20397;-87
2023/11/10 19:43:40;;;;;;;3.45;2.17;;;;;;;;;;10421957;28;20539;-85
2023/11/10 19:48:43;;;;;;;3.90;2.20;;;;;;;;;;10436379;28;20091;-85
2023/11/10 19:53:44;;;;;;;4.93;2.80;;;;;;;;;;10424717;28;20037;-87
2023/11/10 19:58:48;;;;;;;9.18;5.13;;;;;;;;;;10424030;28;20124;-88
2023/11/10 20:03:49;;;;;;;7.60;3.90;;;;;;;;;;10426009;28;20025;-87
2023/11/10 20:08:50;;;;;;;3.25;2.22;;;;;;;;;;10424233;28;20120;-87
